Time;durP1;ratioP1;P1;durP2;ratioP2;P2;SDS_P1;SDS_P2;PMS_P1;PMS_P2;Temp;Humidity;BMP_temperature;BMP_pressure;BME280_temperature;BME280_humidity;BME280_pressure;Samples;Min_cycle;Max_cycle;Signal;HPM_P1;HPM_P2
2023/02/08 00:01:07;;;;;;;27.10;13.30;;;;;;;-7.60;74.52;102323.30;105848;1254;61320;-75
2023/02/08 00:03:36;;;;;;;23.80;13.20;;;;;;;-7.62;74.21;102321.73;105638;1257;74739;-74
2023/02/08 00:06:04;;;;;;;25.40;13.40;;;;;;;-7.65;74.64;102321.55;105519;1254;71560;-75
2023/02/08 00:08:35;;;;;;;29.10;14.00;;;;;;;-7.68;74.61;102320.48;105885;1254;71670;-74
2023/02/08 00:11:04;;;;;;;23.80;12.90;;;;;;;-7.71;74.65;102322.71;105651;1257;60504;-76
2023/02/08 00:13:32;;;;;;;26.60;14.10;;;;;;;-7.76;74.64;102320.42;105522;1254;60538;-75
2023/02/08 00:16:01;;;;;;;27.10;14.70;;;;;;;-7.81;74.77;102320.56;105554;1258;75082;-74
2023/02/08 00:18:30;;;;;;;23.70;13.90;;;;;;;-7.82;74.72;102319.52;105516;1255;71660;-75
2023/02/08 00:20:58;;;;;;;26.80;13.80;;;;;;;-7.72;74.53;102320.81;105502;1254;73977;-75
2023/02/08 00:23:26;;;;;;;25.20;14.30;;;;;;;-7.63;74.11;102326.72;105614;1253;61186;-75
2023/02/08 00:25:54;;;;;;;24.50;14.40;;;;;;;-7.60;74.33;102328.80;105498;1253;60929;-75
2023/02/08 00:28:22;;;;;;;32.90;17.70;;;;;;;-7.64;74.32;102328.78;105542;1257;74737;-75
2023/02/08 00:30:52;;;;;;;28.50;16.40;;;;;;;-7.69;74.59;102322.55;105486;1254;71321;-74
2023/02/08 00:33:20;;;;;;;27.80;16.70;;;;;;;-7.73;74.49;102328.20;105580;1254;73275;-75
2023/02/08 00:35:48;;;;;;;27.70;16.30;;;;;;;-7.77;74.49;102336.77;105990;1254;61545;-76
2023/02/08 00:38:20;;;;;;;29.00;15.80;;;;;;;-7.82;74.55;102333.63;106078;1254;60474;-74
2023/02/08 00:40:49;;;;;;;27.50;15.80;;;;;;;-7.88;74.59;102336.86;105666;1257;73873;-75
2023/02/08 00:43:17;;;;;;;31.50;15.60;;;;;;;-7.93;74.70;102339.39;105560;1258;71782;-74
2023/02/08 00:45:45;;;;;;;27.60;14.90;;;;;;;-7.86;74.51;102341.67;105616;1254;73840;-74
2023/02/08 00:48:13;;;;;;;23.50;12.40;;;;;;;-7.76;74.33;102341.59;105399;1253;61917;-75
2023/02/08 00:50:44;;;;;;;23.90;14.10;;;;;;;-7.71;74.24;102346.29;105513;1254;60449;-75
2023/02/08 00:53:12;;;;;;;23.60;12.90;;;;;;;-7.74;74.38;102350.72;105573;1257;73473;-75
2023/02/08 00:55:41;;;;;;;23.90;13.20;;;;;;;-7.79;74.62;102358.78;105422;1255;70968;-74
2023/02/08 00:58:10;;;;;;;32.10;14.70;;;;;;;-7.85;74.67;102364.06;105536;1256;73382;-74
2023/02/08 01:00:38;;;;;;;28.30;14.80;;;;;;;-7.92;74.71;102366.41;105564;1254;60555;-75
2023/02/08 01:03:07;;;;;;;28.10;14.00;;;;;;;-8.02;74.78;102367.52;105565;1254;60607;-75
2023/02/08 01:05:40;;;;;;;33.10;14.90;;;;;;;-8.12;74.86;102369.83;105519;1254;73844;-74
2023/02/08 01:08:09;;;;;;;32.60;14.00;;;;;;;-8.16;75.02;102374.77;105622;1255;71684;-74
2023/02/08 01:10:37;;;;;;;24.80;14.60;;;;;;;-8.08;75.07;102376.23;105488;1258;72947;-73
2023/02/08 01:13:05;;;;;;;39.30;15.60;;;;;;;-8.01;74.73;102380.09;105696;1254;60540;-72
2023/02/08 01:15:33;;;;;;;30.50;16.00;;;;;;;-7.99;75.15;102381.65;105616;1260;60481;-75
2023/02/08 01:18:02;;;;;;;30.90;16.20;;;;;;;-8.02;75.23;102385.93;105903;1258;74061;-75
2023/02/08 01:20:32;;;;;;;35.30;18.10;;;;;;;-8.04;75.57;102388.83;106285;1254;70725;-74
2023/02/08 01:23:01;;;;;;;37.70;17.30;;;;;;;-8.06;75.52;102393.61;106102;1258;71469;-74
2023/02/08 01:25:31;;;;;;;38.20;19.30;;;;;;;-8.09;75.76;102396.85;105508;1253;60377;-74
2023/02/08 01:28:00;;;;;;;33.20;16.60;;;;;;;-8.13;75.53;102398.20;105515;1254;60458;-74
2023/02/08 01:30:28;;;;;;;39.80;18.70;;;;;;;-8.18;75.61;102405.72;105386;1255;72822;-74
2023/02/08 01:32:56;;;;;;;32.90;17.40;;;;;;;-8.15;75.44;102415.38;105500;1254;70874;-74
2023/02/08 01:35:27;;;;;;;31.10;15.40;;;;;;;-8.06;75.22;102417.52;105371;1254;73840;-74
2023/02/08 01:37:58;;;;;;;27.60;14.40;;;;;;;-8.01;75.34;102421.70;105562;1254;60554;-74
2023/02/08 01:40:26;;;;;;;27.30;15.20;;;;;;;-8.01;75.65;102427.73;105520;1258;61296;-75
2023/02/08 01:42:54;;;;;;;30.60;16.50;;;;;;;-8.05;75.63;102431.80;105743;1257;75279;-75
2023/02/08 01:45:25;;;;;;;31.20;16.60;;;;;;;-8.11;75.94;102434.68;105483;1254;71059;-74
2023/02/08 01:48:11;;;;;;;27.20;15.30;;;;;;;-8.19;75.77;102440.77;105606;1258;72511;-74
2023/02/08 01:50:47;;;;;;;32.30;16.30;;;;;;;-8.33;76.01;102441.13;105649;1254;60465;-74
2023/02/08 01:53:15;;;;;;;35.70;16.00;;;;;;;-8.45;76.00;102444.11;105534;1254;60438;-75
2023/02/08 01:55:47;;;;;;;29.20;14.60;;;;;;;-8.49;76.14;102445.95;105562;1258;73640;-75
2023/02/08 01:58:16;;;;;;;29.30;14.50;;;;;;;-8.42;76.02;102442.07;105384;1256;69526;-75
2023/02/08 02:00:45;;;;;;;30.50;14.80;;;;;;;-8.38;75.81;102439.70;106046;1254;71671;-73
2023/02/08 02:03:13;;;;;;;29.00;15.60;;;;;;;-8.37;76.12;102442.63;106047;1254;60568;-72
2023/02/08 02:05:49;;;;;;;33.50;16.10;;;;;;;-8.40;76.50;102445.69;105761;1254;61557;-73
2023/02/08 02:08:17;;;;;;;33.80;17.40;;;;;;;-8.44;76.55;102449.63;105627;1257;74524;-75
2023/02/08 02:10:48;;;;;;;42.40;18.90;;;;;;;-8.51;76.69;102451.10;105469;1258;71113;-75
2023/02/08 02:13:19;;;;;;;34.80;18.20;;;;;;;-8.58;76.81;102457.19;105563;1254;73607;-74
2023/02/08 02:15:47;;;;;;;39.90;18.40;;;;;;;-8.65;76.91;102451.41;105449;1260;60564;-73
2023/02/08 02:18:22;;;;;;;40.30;18.80;;;;;;;-8.67;76.79;102455.69;105658;1254;61286;-74
2023/02/08 02:21:12;;;;;;;35.50;16.10;;;;;;;-8.58;76.70;102457.36;105691;1255;72722;-73
2023/02/08 02:24:19;;;;;;;29.40;16.50;;;;;;;-8.49;76.45;102459.35;105550;1254;71371;-74
2023/02/08 02:27:05;;;;;;;34.10;17.40;;;;;;;-8.46;76.59;102463.00;105238;1262;72666;-74
2023/02/08 02:29:49;;;;;;;32.70;17.30;;;;;;;-8.48;76.92;102467.44;105720;1256;60924;-72
2023/02/08 02:32:23;;;;;;;37.20;17.50;;;;;;;-8.51;77.23;102466.21;105516;1254;60565;-73
2023/02/08 02:35:00;;;;;;;32.10;16.90;;;;;;;-8.55;77.19;102463.94;105508;1257;74846;-74
2023/02/08 02:37:28;;;;;;;37.10;17.30;;;;;;;-8.60;76.92;102464.71;105607;1258;69453;-73
2023/02/08 02:40:09;;;;;;;31.80;16.20;;;;;;;-8.66;76.91;102470.99;105568;1254;71640;-74
2023/02/08 02:46:03;;;;;;;33.70;14.80;;;;;;;-8.45;76.70;102472.29;106288;1254;60462;-74
2023/02/08 02:48:58;;;;;;;26.70;14.60;;;;;;;-8.39;76.28;102474.59;105715;1257;74075;-74
2023/02/08 02:51:32;;;;;;;29.50;14.90;;;;;;;-8.49;76.19;102477.91;105532;1256;71693;-74
2023/02/08 02:54:13;;;;;;;30.80;16.70;;;;;;;-8.59;76.26;102480.72;105643;1253;70635;-75
2023/02/08 02:56:45;;;;;;;33.30;17.10;;;;;;;-8.73;76.04;102483.11;105449;1254;60519;-74
2023/02/08 02:59:14;;;;;;;39.10;17.20;;;;;;;-8.83;76.27;102481.58;105248;1260;61212;-76
2023/02/08 03:01:43;;;;;;;30.60;16.10;;;;;;;-8.91;76.44;102483.19;105478;1260;74099;-75
2023/02/08 03:04:13;;;;;;;33.30;16.40;;;;;;;-8.93;76.67;102488.48;105505;1258;70503;-74
2023/02/08 03:07:02;;;;;;;30.00;14.50;;;;;;;-8.79;76.43;102492.28;105515;1253;72097;-74
2023/02/08 03:09:34;;;;;;;28.20;14.30;;;;;;;-8.67;76.34;102497.11;105609;1253;61340;-73
2023/02/08 03:12:14;;;;;;;27.10;14.90;;;;;;;-8.63;76.20;102494.40;105461;1254;61332;-74
2023/02/08 03:15:21;;;;;;;31.20;14.50;;;;;;;-8.67;76.64;102504.13;105476;1257;74826;-75
2023/02/08 03:17:59;;;;;;;33.30;17.10;;;;;;;-8.70;76.92;102505.98;105571;1256;69144;-74
2023/02/08 03:20:39;;;;;;;36.40;17.00;;;;;;;-8.72;76.91;102505.78;105693;1257;72330;-74
2023/02/08 03:23:18;;;;;;;33.80;16.60;;;;;;;-8.77;76.96;102511.39;105969;1254;60378;-72
2023/02/08 03:25:50;;;;;;;35.00;17.30;;;;;;;-8.84;76.86;102511.11;106140;1256;60546;-73
2023/02/08 03:28:24;;;;;;;36.50;16.70;;;;;;;-8.78;76.66;102510.52;105687;1256;73802;-72
2023/02/08 03:31:00;;;;;;;36.00;17.20;;;;;;;-8.66;76.51;102510.50;105674;1256;71686;-74
2023/02/08 03:33:36;;;;;;;38.80;20.60;;;;;;;-8.62;76.15;102514.36;105552;1254;70420;-75
2023/02/08 03:36:07;;;;;;;38.10;19.70;;;;;;;-8.69;76.28;102515.29;105566;1254;60876;-73
2023/02/08 03:38:39;;;;;;;36.10;18.40;;;;;;;-8.76;76.74;102521.02;105707;1254;60550;-75
2023/02/08 03:41:10;;;;;;;39.90;20.00;;;;;;;-8.80;76.80;102525.95;106384;1254;72909;-74
2023/02/08 03:43:45;;;;;;;39.10;19.80;;;;;;;-8.82;77.15;102525.23;107321;1254;68013;-75
2023/02/08 03:46:17;;;;;;;34.30;17.80;;;;;;;-8.86;77.01;102529.80;107529;1254;71968;-75
2023/02/08 03:48:48;;;;;;;38.60;17.90;;;;;;;-8.87;76.81;102533.21;107402;1255;61494;-75
2023/02/08 03:51:16;;;;;;;34.60;18.00;;;;;;;-8.75;76.42;102531.86;107070;1254;61184;-75
2023/02/08 03:53:44;;;;;;;33.40;16.60;;;;;;;-8.67;76.20;102532.84;105678;1255;72645;-76
2023/02/08 03:56:20;;;;;;;33.80;16.70;;;;;;;-8.64;76.18;102537.35;105512;1256;69242;-74
2023/02/08 03:58:51;;;;;;;34.40;17.40;;;;;;;-8.70;76.38;102540.70;105633;1255;72326;-75
2023/02/08 04:01:23;;;;;;;36.00;18.10;;;;;;;-8.74;76.70;102543.22;105526;1254;60534;-74
2023/02/08 04:03:52;;;;;;;33.10;17.20;;;;;;;-8.78;76.58;102550.72;105669;1254;60448;-77
2023/02/08 04:06:20;;;;;;;34.00;17.00;;;;;;;-8.81;76.79;102553.23;105604;1257;74444;-73
2023/02/08 04:08:49;;;;;;;35.90;17.70;;;;;;;-8.87;76.56;102556.23;105885;1254;71636;-74
2023/02/08 04:11:18;;;;;;;37.50;16.40;;;;;;;-8.88;76.65;102563.11;106701;1257;72462;-72
2023/02/08 04:13:47;;;;;;;30.40;16.20;;;;;;;-8.77;76.29;102566.19;105983;1254;60881;-74
2023/02/08 04:16:15;;;;;;;33.30;15.50;;;;;;;-8.70;76.21;102566.48;105543;1254;60464;-75
2023/02/08 04:18:43;;;;;;;35.40;15.80;;;;;;;-8.69;76.16;102570.96;105594;1257;72842;-75
2023/02/08 04:21:11;;;;;;;30.50;15.90;;;;;;;-8.74;76.18;102575.52;105360;1256;68903;-76
2023/02/08 04:23:40;;;;;;;30.00;15.80;;;;;;;-8.82;76.27;102579.17;105583;1257;73734;-76
2023/02/08 04:26:08;;;;;;;30.40;16.30;;;;;;;-8.89;76.36;102583.53;105288;1256;60531;-75
2023/02/08 04:28:37;;;;;;;36.90;17.00;;;;;;;-8.95;76.56;102583.25;105621;1254;60530;-74
2023/02/08 04:31:05;;;;;;;30.10;16.50;;;;;;;-8.99;76.44;102585.24;105707;1256;73528;-74
2023/02/08 04:33:35;;;;;;;31.90;16.00;;;;;;;-8.98;76.40;102586.30;105767;1254;69057;-74
2023/02/08 04:36:04;;;;;;;31.50;15.20;;;;;;;-8.87;76.20;102583.72;105836;1254;72212;-75
2023/02/08 04:38:32;;;;;;;28.60;14.40;;;;;;;-8.79;75.96;102591.40;105964;1254;60468;-74
2023/02/08 04:41:01;;;;;;;40.00;17.10;;;;;;;-8.76;76.10;102597.47;106008;1253;60413;-73
2023/02/08 04:43:29;;;;;;;30.80;16.70;;;;;;;-8.79;76.43;102596.73;105544;1256;73620;-74
2023/02/08 04:45:57;;;;;;;41.90;19.50;;;;;;;-8.83;76.37;102597.19;105592;1254;70355;-74
2023/02/08 04:48:25;;;;;;;38.80;18.20;;;;;;;-8.91;76.22;102598.41;105525;1256;72291;-74
2023/02/08 04:50:56;;;;;;;44.40;20.00;;;;;;;-9.00;76.51;102607.38;105564;1254;60470;-74
2023/02/08 04:53:24;;;;;;;39.70;18.70;;;;;;;-9.09;76.37;102611.34;106178;1254;60495;-74
2023/02/08 04:55:53;;;;;;;35.10;17.30;;;;;;;-9.05;76.36;102612.27;105804;1258;74119;-75
2023/02/08 04:58:21;;;;;;;37.40;17.60;;;;;;;-8.97;76.25;102614.31;105397;1260;70627;-75
2023/02/08 05:00:49;;;;;;;40.70;18.20;;;;;;;-8.90;76.03;102614.41;105602;1258;70993;-72
2023/02/08 05:03:17;;;;;;;39.30;19.20;;;;;;;-8.92;76.11;102617.31;105365;1255;60448;-74
2023/02/08 05:05:45;;;;;;;34.30;16.90;;;;;;;-9.00;76.18;102619.58;105444;1254;60573;-73
2023/02/08 05:08:14;;;;;;;39.90;19.50;;;;;;;-9.05;76.42;102615.88;105415;1254;72746;-74
2023/02/08 05:10:45;;;;;;;39.80;20.60;;;;;;;-9.08;76.72;102617.38;105617;1254;71175;-74
2023/02/08 05:13:13;;;;;;;38.10;19.30;;;;;;;-9.11;76.61;102619.55;105523;1254;72036;-74
2023/02/08 05:15:42;;;;;;;42.60;19.10;;;;;;;-9.15;76.55;102622.05;105489;1254;63084;-75
2023/02/08 05:18:12;;;;;;;37.40;18.20;;;;;;;-9.07;76.34;102618.77;105449;1254;61315;-75
2023/02/08 05:20:40;;;;;;;37.00;17.70;;;;;;;-8.96;76.18;102618.96;105536;1261;74523;-75
2023/02/08 05:23:08;;;;;;;36.00;17.80;;;;;;;-8.90;75.81;102624.38;105398;1256;70671;-75
2023/02/08 05:25:38;;;;;;;39.40;19.10;;;;;;;-8.92;76.23;102634.15;105420;1256;73281;-75
2023/02/08 05:28:06;;;;;;;35.10;18.70;;;;;;;-8.95;76.29;102644.75;105539;1255;60473;-75
2023/02/08 05:30:35;;;;;;;39.00;20.40;;;;;;;-8.98;76.25;102654.81;105576;1255;60447;-75
2023/02/08 05:33:03;;;;;;;39.20;20.10;;;;;;;-9.02;76.22;102656.98;105753;1259;74405;-74
2023/02/08 05:35:31;;;;;;;39.60;19.30;;;;;;;-9.08;76.20;102656.02;106187;1254;70390;-74
2023/02/08 05:37:59;;;;;;;41.80;20.10;;;;;;;-9.13;76.07;102658.85;106413;1254;74116;-75
2023/02/08 05:40:28;;;;;;;35.20;17.70;;;;;;;-9.04;76.02;102661.77;105626;1254;61821;-75
2023/02/08 05:42:56;;;;;;;36.40;18.50;;;;;;;-8.92;75.87;102665.23;105544;1254;60554;-73
2023/02/08 05:45:24;;;;;;;33.70;18.60;;;;;;;-8.87;75.71;102667.55;105466;1258;72403;-74
2023/02/08 05:47:52;;;;;;;37.50;20.50;;;;;;;-8.91;75.94;102667.48;105507;1254;70292;-76
2023/02/08 05:50:21;;;;;;;42.30;21.90;;;;;;;-8.94;76.04;102671.89;105326;1260;72255;-73
2023/02/08 05:52:50;;;;;;;41.40;22.30;;;;;;;-8.94;76.40;102673.43;105399;1256;60604;-75
2023/02/08 05:55:18;;;;;;;39.30;21.20;;;;;;;-8.95;76.30;102677.89;105585;1254;61617;-77
2023/02/08 05:57:46;;;;;;;44.90;22.80;;;;;;;-8.99;76.31;102678.31;105527;1258;74827;-75
2023/02/08 06:00:15;;;;;;;39.60;20.70;;;;;;;-9.02;76.40;102677.77;105372;1254;69976;-75
2023/02/08 06:02:43;;;;;;;36.30;19.40;;;;;;;-8.89;76.29;102676.63;105553;1256;73708;-80
2023/02/08 06:05:12;;;;;;;34.10;19.40;;;;;;;-8.73;76.02;102681.36;105801;1254;61238;-80
2023/02/08 06:07:40;;;;;;;35.50;19.20;;;;;;;-8.66;76.05;102685.44;105807;1254;60540;-80
2023/02/08 06:10:08;;;;;;;39.50;20.90;;;;;;;-8.66;76.06;102686.46;106182;1255;74740;-78
2023/02/08 06:12:39;;;;;;;41.00;20.50;;;;;;;-8.66;76.38;102681.48;107238;1254;71240;-80
2023/02/08 06:15:08;;;;;;;46.20;21.60;;;;;;;-8.63;76.53;102681.36;105845;1254;73889;-79
2023/02/08 06:17:37;;;;;;;41.30;22.00;;;;;;;-8.59;76.54;102683.31;106076;1254;60504;-80
2023/02/08 06:20:06;;;;;;;48.50;22.90;;;;;;;-8.58;76.30;102688.15;108382;1254;60302;-81
2023/02/08 06:22:34;;;;;;;39.30;20.60;;;;;;;-8.58;75.96;102689.35;106785;1255;71651;-78
2023/02/08 06:25:02;;;;;;;41.70;19.30;;;;;;;-8.44;75.93;102690.60;105862;1254;71617;-79
2023/02/08 06:27:30;;;;;;;40.80;20.10;;;;;;;-8.28;75.71;102690.48;105832;1254;74026;-79
2023/02/08 06:29:59;;;;;;;42.10;19.90;;;;;;;-8.17;75.47;102691.54;105685;1256;60484;-79
2023/02/08 06:32:27;;;;;;;39.60;20.20;;;;;;;-8.13;75.58;102693.31;105846;1258;61155;-79
2023/02/08 06:34:55;;;;;;;42.20;20.40;;;;;;;-8.09;75.68;102700.95;106605;1254;74227;-79
2023/02/08 06:37:23;;;;;;;33.50;18.50;;;;;;;-8.03;75.63;102704.63;107213;1254;67942;-79
2023/02/08 06:39:51;;;;;;;36.70;18.90;;;;;;;-8.03;75.13;102704.64;107067;1254;71294;-78
2023/02/08 06:42:20;;;;;;;38.80;19.60;;;;;;;-8.05;75.12;102704.09;107588;1254;60391;-77
2023/02/08 06:44:49;;;;;;;38.80;19.20;;;;;;;-8.08;74.85;102706.97;106921;1256;198069;-78
2023/02/08 06:50:15;;;;;;;41.90;19.10;;;;;;;-7.92;74.66;102709.10;102964;1292;601259;-78
2023/02/08 06:52:43;;;;;;;36.40;19.30;;;;;;;-7.89;74.52;102712.41;105361;1267;59326;-78
2023/02/08 06:55:11;;;;;;;35.50;18.70;;;;;;;-7.88;74.72;102707.44;105419;1267;61585;-78
2023/02/08 06:57:41;;;;;;;35.30;18.70;;;;;;;-7.87;74.26;102714.67;106778;1269;73061;-79
2023/02/08 07:00:10;;;;;;;40.30;19.70;;;;;;;-7.88;74.38;102713.46;106530;1267;68110;-78
2023/02/08 07:02:39;;;;;;;37.50;19.80;;;;;;;-7.85;74.63;102715.39;107816;1263;71019;-78
2023/02/08 07:05:07;;;;;;;37.30;19.40;;;;;;;-7.71;74.30;102714.73;106323;1262;484815;-79
2023/02/08 07:07:35;;;;;;;34.80;19.50;;;;;;;-7.51;73.70;102712.25;105452;1263;59346;-79
2023/02/08 07:10:04;;;;;;;32.60;18.50;;;;;;;-7.31;73.77;102713.87;105604;1262;73024;-79
2023/02/08 07:12:35;;;;;;;38.50;20.80;;;;;;;-7.21;73.41;102711.59;105848;1260;70256;-80
2023/02/08 07:15:03;;;;;;;38.70;20.90;;;;;;;-7.14;73.74;102710.63;105735;1260;71743;-80
2023/02/08 07:17:32;;;;;;;41.70;22.50;;;;;;;-7.03;73.69;102711.45;105613;1260;59870;-79
2023/02/08 07:20:00;;;;;;;42.00;22.20;;;;;;;-6.92;73.68;102713.96;106698;1260;60539;-77
2023/02/08 07:22:28;;;;;;;42.20;22.40;;;;;;;-6.83;73.32;102712.85;108165;1260;73272;-78
2023/02/08 07:24:58;;;;;;;38.50;22.30;;;;;;;-6.78;73.11;102708.27;108117;1260;70490;-80
2023/02/08 07:27:26;;;;;;;45.90;23.60;;;;;;;-6.70;72.85;102709.19;107982;1260;72651;-79
2023/02/08 07:29:54;;;;;;;41.00;24.20;;;;;;;-6.67;72.54;102704.75;107406;1260;60086;-81
2023/02/08 07:32:22;;;;;;;41.30;23.60;;;;;;;-6.63;72.27;102705.98;105478;1264;59608;-79
2023/02/08 07:34:50;;;;;;;41.40;23.30;;;;;;;-6.66;71.80;102711.14;105548;1260;72903;-79
2023/02/08 07:37:18;;;;;;;46.00;24.10;;;;;;;-6.69;71.55;102710.05;105903;1264;68258;-79
2023/02/08 07:39:46;;;;;;;48.50;24.90;;;;;;;-6.69;71.40;102709.39;106527;1265;71631;-79
2023/02/08 07:42:13;;;;;;;42.50;23.10;;;;;;;-6.53;71.36;102709.17;107303;1260;62448;-79
2023/02/08 07:44:50;;;;;;;45.50;24.60;;;;;;;-6.32;71.40;102711.42;107700;1256;58650;-77
2023/02/08 07:47:18;;;;;;;42.00;24.10;;;;;;;-6.10;71.31;102719.88;108108;1257;72269;-78
2023/02/08 07:49:46;;;;;;;44.40;24.80;;;;;;;-5.94;71.11;102718.25;107790;1256;68473;-80
2023/02/08 07:52:14;;;;;;;44.30;25.20;;;;;;;-5.78;70.65;102717.31;105771;1259;71552;-79
2023/02/08 07:54:43;;;;;;;36.90;22.20;;;;;;;-5.61;70.25;102718.09;106486;1256;59682;-78
2023/02/08 07:57:10;;;;;;;44.30;24.90;;;;;;;-5.41;70.05;102716.98;107050;1257;59506;-78
2023/02/08 07:59:38;;;;;;;40.90;23.60;;;;;;;-5.20;69.83;102717.58;106615;1259;74205;-78
2023/02/08 08:02:07;;;;;;;38.70;23.20;;;;;;;-5.04;69.15;102719.36;105883;1257;70322;-80
2023/02/08 08:04:36;;;;;;;45.50;23.50;;;;;;;-4.90;68.65;102723.73;106087;1259;72876;-79
2023/02/08 08:07:05;;;;;;;41.20;23.90;;;;;;;-4.76;68.32;102726.52;106013;1257;60451;-79
2023/02/08 08:09:33;;;;;;;33.50;21.30;;;;;;;-4.61;68.15;102723.61;105518;1257;61537;-79
2023/02/08 08:12:02;;;;;;;42.80;23.00;;;;;;;-4.50;67.13;102722.75;105799;1259;74435;-79
2023/02/08 08:14:30;;;;;;;34.90;21.40;;;;;;;-4.46;66.94;102721.55;105756;1257;71576;-79
2023/02/08 08:16:58;;;;;;;39.30;22.40;;;;;;;-4.39;66.91;102726.40;105714;1257;73558;-79
2023/02/08 08:19:27;;;;;;;38.70;23.70;;;;;;;-4.29;66.63;102728.82;106043;1255;61582;-79
2023/02/08 08:21:55;;;;;;;41.60;23.50;;;;;;;-4.17;66.61;102728.30;105885;1257;61382;-79
2023/02/08 08:24:23;;;;;;;37.00;22.80;;;;;;;-4.04;66.37;102725.52;105914;1259;71791;-79
2023/02/08 08:26:52;;;;;;;40.20;23.30;;;;;;;-3.95;65.43;102725.17;107138;1257;70112;-78
2023/02/08 08:29:20;;;;;;;41.90;24.20;;;;;;;-3.88;65.57;102729.30;107063;1259;73848;-78
2023/02/08 08:31:48;;;;;;;45.80;25.60;;;;;;;-3.72;65.81;102732.75;106789;1259;59993;-78
2023/02/08 08:34:16;;;;;;;38.80;25.20;;;;;;;-3.51;65.54;102730.63;106283;1256;61533;-78
2023/02/08 08:36:44;;;;;;;43.70;24.60;;;;;;;-3.28;65.34;102732.11;106431;1256;72559;-78
2023/02/08 08:39:12;;;;;;;38.20;23.10;;;;;;;-3.05;64.87;102730.60;106478;1258;69908;-79
2023/02/08 08:41:40;;;;;;;41.70;23.90;;;;;;;-2.82;63.82;102727.71;106167;1257;72827;-78
2023/02/08 08:44:08;;;;;;;39.00;24.00;;;;;;;-2.64;64.06;102729.34;106036;1257;59839;-77
2023/02/08 08:46:37;;;;;;;40.40;23.80;;;;;;;-2.43;63.05;102728.14;106197;1257;60899;-78
2023/02/08 08:49:05;;;;;;;39.10;22.60;;;;;;;-2.21;62.84;102731.27;106462;1259;73078;-77
2023/02/08 08:51:34;;;;;;;41.70;24.80;;;;;;;-1.99;62.15;102727.61;106881;1258;69484;-77
2023/02/08 08:54:03;;;;;;;41.00;23.80;;;;;;;-1.77;61.79;102733.48;107253;1257;71423;-77
2023/02/08 08:56:31;;;;;;;43.60;25.80;;;;;;;-1.58;61.29;102735.71;106553;1256;60112;-78
2023/02/08 08:59:00;;;;;;;37.30;23.80;;;;;;;-1.35;61.02;102737.54;105891;1257;59738;-78
2023/02/08 09:01:28;;;;;;;40.10;22.30;;;;;;;-1.13;60.79;102739.02;105687;1260;74127;-78
2023/02/08 09:03:56;;;;;;;41.90;23.50;;;;;;;-0.86;60.84;102735.52;106206;1260;70474;-78
2023/02/08 09:06:24;;;;;;;37.50;22.60;;;;;;;-0.57;59.98;102732.33;106618;1257;71808;-78
2023/02/08 09:08:52;;;;;;;38.30;22.90;;;;;;;-0.34;59.00;102730.74;107191;1257;59691;-78
2023/02/08 09:11:20;;;;;;;32.10;20.30;;;;;;;-0.10;59.40;102735.77;107643;1256;59525;-78
2023/02/08 09:13:51;;;;;;;29.70;19.30;;;;;;;0.16;58.67;102736.87;105993;1259;72034;-77
2023/02/08 09:16:23;;;;;;;32.80;20.80;;;;;;;0.41;58.42;102735.52;105772;1259;70797;-77
2023/02/08 09:18:51;;;;;;;34.90;23.20;;;;;;;0.70;58.32;102735.85;105742;1258;72642;-78
2023/02/08 09:21:21;;;;;;;32.70;21.70;;;;;;;1.04;57.83;102731.63;105760;1259;59650;-77
2023/02/08 09:23:49;;;;;;;33.30;21.20;;;;;;;1.43;57.19;102728.83;105689;1256;59847;-78
2023/02/08 09:26:18;;;;;;;31.70;21.30;;;;;;;1.93;56.61;102730.76;105765;1260;73013;-78
2023/02/08 09:28:46;;;;;;;37.00;22.50;;;;;;;2.49;55.38;102725.77;105758;1260;70295;-78
2023/02/08 09:31:18;;;;;;;30.90;20.00;;;;;;;3.09;54.84;102728.42;105793;1258;72513;-79
2023/02/08 09:33:47;;;;;;;32.30;22.50;;;;;;;3.77;52.76;102720.83;105725;1257;60521;-78
2023/02/08 09:36:16;;;;;;;34.50;23.10;;;;;;;4.37;52.20;102717.91;105948;1257;61280;-80
2023/02/08 09:38:44;;;;;;;33.00;22.40;;;;;;;5.11;51.31;102711.95;106204;1260;73019;-80
2023/02/08 09:41:37;;;;;;;30.20;21.70;;;;;;;5.83;49.47;102710.98;106276;1257;70084;-80
2023/02/08 09:44:27;;;;;;;29.80;22.30;;;;;;;6.61;48.21;102713.39;105997;1257;72228;-80
2023/02/08 09:47:02;;;;;;;24.60;18.60;;;;;;;7.43;46.84;102707.84;105826;1257;59680;-80
2023/02/08 09:49:33;;;;;;;30.90;20.20;;;;;;;8.07;45.75;102699.63;106209;1255;59730;-80
2023/02/08 09:52:03;;;;;;;23.20;19.40;;;;;;;8.65;45.10;102701.77;106766;1257;70838;-78
2023/02/08 09:54:37;;;;;;;24.80;19.50;;;;;;;9.39;43.93;102694.83;107534;1256;71350;-79
2023/02/08 09:57:12;;;;;;;27.40;19.30;;;;;;;10.14;42.50;102693.75;107096;1257;72632;-80
2023/02/08 09:59:46;;;;;;;23.60;19.10;;;;;;;10.64;41.47;102690.71;107130;1257;60096;-80
2023/02/08 10:02:31;;;;;;;23.80;19.00;;;;;;;11.10;40.75;102687.31;106633;1260;60518;-80
2023/02/08 10:05:02;;;;;;;25.80;20.40;;;;;;;11.69;40.37;102683.21;106120;1257;71002;-81
2023/02/08 10:07:31;;;;;;;27.20;21.30;;;;;;;12.23;38.51;102676.86;105938;1257;70291;-81
2023/02/08 10:10:10;;;;;;;29.50;21.90;;;;;;;12.58;38.36;102673.00;106003;1258;74050;-81
2023/02/08 10:12:46;;;;;;;26.50;19.70;;;;;;;12.97;37.77;102676.77;107235;1256;59641;-80
2023/02/08 10:15:35;;;;;;;28.10;19.30;;;;;;;13.40;37.04;102671.61;106779;1255;60225;-82
2023/02/08 10:18:25;;;;;;;24.80;20.60;;;;;;;13.80;36.47;102671.31;105859;1259;74093;-81
2023/02/08 10:21:30;;;;;;;26.10;19.40;;;;;;;14.06;36.14;102674.84;105651;1257;70704;-79
2023/02/08 10:24:10;;;;;;;29.40;19.70;;;;;;;14.12;34.76;102674.88;105892;1256;73928;-82
2023/02/08 10:26:52;;;;;;;27.60;21.00;;;;;;;14.03;35.10;102677.21;105701;1257;62052;-80
2023/02/08 10:29:30;;;;;;;23.50;20.80;;;;;;;14.26;35.07;102674.14;105885;1256;61288;-79
2023/02/08 10:32:21;;;;;;;36.40;28.50;;;;;;;14.57;35.06;102675.49;105868;1259;72790;-81
2023/02/08 10:35:02;;;;;;;46.70;33.60;;;;;;;14.87;34.57;102675.41;107106;1259;69113;-80
2023/02/08 10:37:34;;;;;;;50.60;37.30;;;;;;;15.22;34.45;102677.73;108573;1255;72014;-81
2023/02/08 10:40:42;;;;;;;41.00;30.60;;;;;;;15.59;33.94;102677.35;106090;1256;61312;-80
2023/02/08 10:43:34;;;;;;;30.80;25.60;;;;;;;15.91;33.57;102673.55;105703;1257;61766;-81
2023/02/08 10:46:25;;;;;;;25.60;22.20;;;;;;;16.12;32.97;102670.15;106020;1255;74318;-80
2023/02/08 10:49:06;;;;;;;22.90;19.50;;;;;;;16.29;31.99;102668.67;108106;1256;70758;-80
2023/02/08 10:51:35;;;;;;;20.80;18.50;;;;;;;16.29;32.30;102668.11;105905;1260;72370;-81
2023/02/08 10:54:03;;;;;;;19.60;16.90;;;;;;;16.51;32.76;102674.41;105842;1257;59723;-81
2023/02/08 10:56:51;;;;;;;19.20;17.20;;;;;;;16.75;31.55;102667.45;106178;1257;59664;-80
2023/02/08 10:59:25;;;;;;;23.00;19.10;;;;;;;16.80;31.51;102669.53;106104;1256;72256;-84
2023/02/08 11:01:53;;;;;;;26.30;20.70;;;;;;;16.95;31.45;102674.27;106487;1253;69787;-80
2023/02/08 11:04:21;;;;;;;21.60;19.30;;;;;;;17.14;31.35;102673.48;108375;1254;73554;-83
2023/02/08 11:06:50;;;;;;;23.80;19.50;;;;;;;17.19;30.29;102675.91;108960;1253;61173;-82
2023/02/08 11:09:22;;;;;;;23.00;20.00;;;;;;;17.12;31.59;102680.32;108507;1256;59122;-83
2023/02/08 11:11:55;;;;;;;20.90;18.80;;;;;;;17.25;30.67;102680.34;108388;1256;71905;-81
2023/02/08 11:14:33;;;;;;;22.10;19.50;;;;;;;17.22;30.83;102679.72;107156;1256;70271;-81
2023/02/08 11:17:26;;;;;;;22.40;19.40;;;;;;;17.32;30.49;102681.10;107411;1259;72702;-81
2023/02/08 11:19:54;;;;;;;25.40;20.60;;;;;;;17.45;30.03;102680.15;108297;1253;61317;-80
2023/02/08 11:22:25;;;;;;;26.70;21.60;;;;;;;17.57;30.29;102682.08;108266;1253;60186;-80
2023/02/08 11:24:56;;;;;;;25.40;21.40;;;;;;;17.65;29.60;102683.77;107427;1256;72914;-81
2023/02/08 11:27:27;;;;;;;25.20;21.90;;;;;;;17.56;29.71;102683.90;106507;1254;71300;-84